Latest Weather Observations for Kurnell

IDN60801

Issued at 11:02 pm EST Saturday 18 April 2015 (issued every 30 minutes, with the page automatically refreshed every 10 minutes)

About weather observations | Map of weather stations | Latest weather observations for NSW | Other Formats
Station Details ID: 066043 Name: KURNELL AWS Lat: -34.00 Lon: 151.21 Height: 4.0 m
Data from the previous 72 hours. | See also: Recent months for locations in New South Wales
Date/Time
EST
Temp
°C
App
Temp
°C
Dew
Point
Rel
Hum
%
Delta-T
°C
Wind Press
QNH
hPa
Press
MSL
hPa
Rain
since 9 am
mm
Dir
 
Spd
km/h
Gust
km/h
Spd
kts
Gust
kts
18/11:00pm - - - - - NNW 17 26 9 14 - - -
18/10:30pm - - - - - N 30 35 16 19 - - -
18/10:00pm - - - - - NNW 33 50 18 27 - - -
18/09:30pm - - - - - NW 35 52 19 28 - - -
18/09:28pm - - - - - NW 33 52 18 28 - - -
18/09:00pm - - - - - NNE 26 30 14 16 - - -
18/08:30pm - - - - - NNE 26 33 14 18 - - -
18/08:00pm - - - - - NNE 24 30 13 16 - - -
18/07:30pm - - - - - NE 24 28 13 15 - - -
18/07:00pm - - - - - NNE 28 32 15 17 - - -
18/06:30pm - - - - - NNE 26 32 14 17 - - -
18/06:00pm - - - - - NNE 26 32 14 17 - - -
18/05:30pm - - - - - NE 26 30 14 16 - - -
18/05:00pm - - - - - NNE 26 33 14 18 - - -
18/04:30pm - - - - - NNE 28 33 15 18 - - -
18/04:00pm - - - - - N 28 37 15 20 - - -
18/03:30pm - - - - - NNE 24 32 13 17 - - -
18/03:00pm - - - - - NE 22 30 12 16 - - -
18/02:30pm - - - - - NE 30 33 16 18 - - -
18/02:00pm - - - - - NNE 26 32 14 17 - - -
18/01:30pm - - - - - N 22 28 12 15 - - -
18/01:00pm - - - - - N 30 39 16 21 - - -
18/12:30pm - - - - - N 28 37 15 20 - - -
18/12:00pm - - - - - N 26 33 14 18 - - -
18/11:30am - - - - - N 26 33 14 18 - - -
18/11:00am - - - - - N 26 32 14 17 - - -
18/10:30am - - - - - N 30 37 16 20 - - -
18/10:00am - - - - - N 26 35 14 19 - - -
18/09:30am - - - - - N 28 35 15 19 - - -
18/09:00am - - - - - N 26 32 14 17 - - -
18/08:30am - - - - - N 24 28 13 15 - - -
18/08:00am - - - - - N 24 28 13 15 - - -
18/07:30am - - - - - NNE 13 17 7 9 - - -
18/07:00am - - - - - NE 15 19 8 10 - - -
18/06:30am - - - - - NNE 15 17 8 9 - - -
18/06:00am - - - - - NNE 13 17 7 9 - - -
18/05:30am - - - - - N 11 13 6 7 - - -
18/05:00am - - - - - NNE 15 17 8 9 - - -
18/04:30am - - - - - N 13 15 7 8 - - -
18/04:00am - - - - - N 11 13 6 7 - - -
18/03:30am - - - - - NNW 11 15 6 8 - - -
18/03:00am - - - - - NNW 11 15 6 8 - - -
18/02:30am - - - - - NNW 13 15 7 8 - - -
18/02:00am - - - - - NW 17 20 9 11 - - -
18/01:30am - - - - - NNW 13 15 7 8 - - -
18/01:00am - - - - - NW 13 13 7 7 - - -
18/12:30am - - - - - NW 9 11 5 6 - - -
18/12:00am - - - - - NW 9 11 5 6 - - -
 
Date/Time
EST
Temp
°C
App
Temp
°C
Dew
Point
Rel
Hum
%
Delta-T
°C
Wind Press
QNH
hPa
Press
MSL
hPa
Rain
since 9 am
mm
Dir
 
Spd
km/h
Gust
km/h
Spd
kts
Gust
kts
17/11:30pm - - - - - NNW 11 13 6 7 - - -
17/11:00pm - - - - - NNW 9 13 5 7 - - -
17/10:30pm - - - - - NNE 9 13 5 7 - - -
17/10:00pm - - - - - NNE 9 13 5 7 - - -
17/09:30pm - - - - - NNE 11 13 6 7 - - -
17/09:00pm - - - - - NE 13 17 7 9 - - -
17/08:30pm - - - - - NE 15 19 8 10 - - -
17/08:00pm - - - - - ENE 17 20 9 11 - - -
17/07:30pm - - - - - ENE 19 22 10 12 - - -
17/07:00pm - - - - - ENE 13 15 7 8 - - -
17/06:30pm - - - - - E 15 17 8 9 - - -
17/06:00pm - - - - - E 13 17 7 9 - - -
17/05:30pm - - - - - E 13 17 7 9 - - -
17/05:00pm - - - - - ENE 15 17 8 9 - - -
17/04:30pm - - - - - ENE 13 15 7 8 - - -
17/04:00pm - - - - - ENE 15 17 8 9 - - -
17/03:30pm - - - - - ENE 17 20 9 11 - - -
17/03:00pm - - - - - ENE 17 19 9 10 - - -
17/02:30pm - - - - - E 17 19 9 10 - - -
17/02:00pm - - - - - E 15 19 8 10 - - -
17/01:30pm - - - - - E 13 17 7 9 - - -
17/01:00pm - - - - - E 15 19 8 10 - - -
17/12:30pm - - - - - E 17 20 9 11 - - -
17/12:00pm - - - - - ENE 17 19 9 10 - - -
17/11:30am - - - - - E 11 13 6 7 - - -
17/11:00am - - - - - ESE 9 11 5 6 - - -
17/10:30am - - - - - ENE 11 15 6 8 - - -
17/10:00am - - - - - ENE 15 19 8 10 - - -
17/09:30am - - - - - E 19 24 10 13 - - -
17/09:00am - - - - - ENE 15 19 8 10 - - -
17/08:30am - - - - - ENE 17 20 9 11 - - -
17/08:00am - - - - - E 15 19 8 10 - - -
17/07:30am - - - - - E 15 19 8 10 - - -
17/07:00am - - - - - E 15 17 8 9 - - -
17/06:30am - - - - - E 15 19 8 10 - - -
17/06:00am - - - - - E 13 15 7 8 - - -
17/05:30am - - - - - ESE 13 15 7 8 - - -
17/05:00am - - - - - SE 11 15 6 8 - - -
17/04:30am - - - - - SSE 13 19 7 10 - - -
17/04:00am - - - - - SE 13 19 7 10 - - -
17/03:30am - - - - - SSE 15 20 8 11 - - -
17/03:00am - - - - - SSE 15 22 8 12 - - -
17/02:30am - - - - - SSE 11 15 6 8 - - -
17/02:00am - - - - - SE 9 15 5 8 - - -
17/01:30am - - - - - SSE 13 15 7 8 - - -
17/01:00am - - - - - SSE 13 15 7 8 - - -
17/12:30am - - - - - SSE 13 17 7 9 - - -
17/12:00am - - - - - SSE 13 17 7 9 - - -
 
Date/Time
EST
Temp
°C
App
Temp
°C
Dew
Point
Rel
Hum
%
Delta-T
°C
Wind Press
QNH
hPa
Press
MSL
hPa
Rain
since 9 am
mm
Dir
 
Spd
km/h
Gust
km/h
Spd
kts
Gust
kts
16/11:30pm - - - - - SSE 9 15 5 8 - - -
16/11:00pm - - - - - SSE 11 17 6 9 - - -
16/10:30pm - - - - - SE 15 20 8 11 - - -
16/10:00pm - - - - - SE 17 22 9 12 - - -
16/09:30pm - - - - - SE 20 28 11 15 - - -
16/09:00pm - - - - - SE 20 32 11 17 - - -
16/08:30pm - - - - - SSE 26 35 14 19 - - -
16/08:00pm - - - - - SSE 24 35 13 19 - - -
16/07:30pm - - - - - SSE 28 39 15 21 - - -
16/07:00pm - - - - - SSE 26 33 14 18 - - -
16/06:30pm - - - - - S 30 41 16 22 - - -
16/06:00pm - - - - - S 30 37 16 20 - - -
16/05:30pm - - - - - S 28 33 15 18 - - -
16/05:00pm - - - - - S 33 44 18 24 - - -
16/04:30pm - - - - - SSW 28 39 15 21 - - -
16/04:04pm - - - - - S 19 43 10 23 - - -
16/04:00pm - - - - - SSE 11 24 6 13 - - -
16/03:30pm - - - - - ENE 22 26 12 14 - - -
16/03:00pm - - - - - ENE 17 24 9 13 - - -
16/02:30pm - - - - - NNW 13 19 7 10 - - -
16/02:00pm - - - - - WNW 24 30 13 16 - - -
16/01:30pm - - - - - WNW 15 19 8 10 - - -
16/01:00pm - - - - - WNW 13 17 7 9 - - -
16/12:30pm - - - - - NW 15 19 8 10 - - -
16/12:00pm - - - - - NNW 15 19 8 10 - - -
16/11:30am - - - - - NNW 13 15 7 8 - - -
16/11:00am - - - - - NNW 13 17 7 9 - - -
16/10:30am - - - - - NNW 15 20 8 11 - - -
16/10:00am - - - - - NNW 13 15 7 8 - - -
16/09:30am - - - - - NNW 11 15 6 8 - - -
16/09:00am - - - - - N 11 13 6 7 - - -
16/08:30am - - - - - N 9 13 5 7 - - -
16/08:00am - - - - - NNW 9 13 5 7 - - -
16/07:30am - - - - - NNW 13 17 7 9 - - -
16/07:00am - - - - - N 11 15 6 8 - - -
16/06:30am - - - - - NW 13 17 7 9 - - -
16/06:00am - - - - - WNW 9 11 5 6 - - -
16/05:30am - - - - - WNW 13 13 7 7 - - -
16/05:00am - - - - - WNW 17 19 9 10 - - -
16/04:30am - - - - - NNW 11 15 6 8 - - -
16/04:00am - - - - - N 15 19 8 10 - - -
16/03:30am - - - - - NNW 15 19 8 10 - - -
16/03:00am - - - - - NW 20 24 11 13 - - -
16/02:30am - - - - - NW 19 22 10 12 - - -
16/02:00am - - - - - NW 26 30 14 16 - - -
16/01:30am - - - - - NW 24 28 13 15 - - -
16/01:00am - - - - - NNW 26 32 14 17 - - -
16/12:30am - - - - - NW 20 28 11 15 - - -
16/12:00am - - - - - NW 17 20 9 11 - - -
 
Date/Time
EST
Temp
°C
App
Temp
°C
Dew
Point
Rel
Hum
%
Delta-T
°C
Wind Press
QNH
hPa
Press
MSL
hPa
Rain
since 9 am
mm
Dir
 
Spd
km/h
Gust
km/h
Spd
kts
Gust
kts
15/11:30pm - - - - - NW 20 26 11 14 - - -

Other Formats:

Comma delimited format used in spreadsheet applications
http://www.bom.gov.au/fwo/IDN60801/IDN60801.95756.axf

JavaScript Object Notation format (JSON) in row-major order
http://www.bom.gov.au/fwo/IDN60801/IDN60801.95756.json